createdAt,value
2023-02-14T00:03:28.808Z,4.35
2023-02-14T00:08:31.578Z,4.36
2023-02-14T00:13:34.370Z,4.34
2023-02-14T00:19:07.462Z,4.34
2023-02-14T00:24:12.007Z,4.31
2023-02-14T00:29:16.484Z,4.33
2023-02-14T00:34:20.757Z,4.27
2023-02-14T00:39:23.749Z,4.23
2023-02-14T00:44:26.627Z,4.20
2023-02-14T00:49:30.841Z,4.15
2023-02-14T00:54:34.937Z,4.05
2023-02-14T00:59:37.799Z,3.94
2023-02-14T01:04:41.930Z,3.80
2023-02-14T01:09:44.778Z,3.74
2023-02-14T01:14:47.563Z,3.69
2023-02-14T01:19:54.543Z,3.65
2023-02-14T01:24:57.294Z,3.53
2023-02-14T01:30:00.322Z,3.50
2023-02-14T01:35:04.834Z,3.35
2023-02-14T01:40:09.650Z,3.28
2023-02-14T01:45:18.666Z,3.23
2023-02-14T01:50:27.878Z,3.21
2023-02-14T01:55:33.154Z,3.06
2023-02-14T02:00:54.188Z,3.06
2023-02-14T02:06:03.133Z,2.99
2023-02-14T02:11:06.259Z,2.93
2023-02-14T02:16:20.908Z,2.93
2023-02-14T02:21:50.672Z,2.93
2023-02-14T02:27:22.607Z,2.91
2023-02-14T02:32:42.963Z,2.89
2023-02-14T02:37:54.987Z,2.99
2023-02-14T02:43:06.545Z,3.17
2023-02-14T02:48:14.681Z,3.29
2023-02-14T02:53:21.869Z,3.23
2023-02-14T02:58:27.277Z,3.29
2023-02-14T03:03:49.656Z,3.25
2023-02-14T03:08:53.897Z,3.24
2023-02-14T03:14:21.017Z,3.24
2023-02-14T03:19:37.882Z,3.19
2023-02-14T03:24:47.543Z,3.27
2023-02-14T03:29:58.740Z,3.30
2023-02-14T03:35:10.760Z,3.32
2023-02-14T03:40:21.692Z,3.29
2023-02-14T03:45:30.433Z,3.23
2023-02-14T03:50:42.888Z,3.14
2023-02-14T03:55:50.402Z,2.90
2023-02-14T04:00:58.601Z,2.66
2023-02-14T04:06:02.779Z,2.58
2023-02-14T04:11:07.843Z,2.61
2023-02-14T04:16:10.791Z,2.64
2023-02-14T04:21:13.638Z,2.60
2023-02-14T04:26:23.382Z,2.49
2023-02-14T04:31:26.466Z,2.47
2023-02-14T04:36:29.843Z,2.44
2023-02-14T04:41:52.567Z,2.41
2023-02-14T04:47:00.838Z,2.37
2023-02-14T04:52:05.190Z,2.50
2023-02-14T04:57:12.084Z,2.61
2023-02-14T05:02:14.903Z,2.73
2023-02-14T05:07:18.011Z,2.87
2023-02-14T05:12:22.155Z,3.00
2023-02-14T05:17:25.216Z,3.04
2023-02-14T05:22:29.415Z,3.07
2023-02-14T05:27:33.978Z,3.12
2023-02-14T05:32:37.040Z,3.14
2023-02-14T05:37:39.860Z,3.14
2023-02-14T05:42:45.078Z,3.14
2023-02-14T05:48:06.630Z,3.11
2023-02-14T05:53:09.576Z,3.08
2023-02-14T05:58:13.716Z,3.10
2023-02-14T06:03:16.506Z,3.13
2023-02-14T06:08:19.316Z,3.14
2023-02-14T06:13:43.735Z,3.18
2023-02-14T06:18:46.673Z,3.23
2023-02-14T06:23:50.887Z,3.27
2023-02-14T06:28:55.774Z,3.27
2023-02-14T06:33:58.653Z,3.30
2023-02-14T06:39:21.587Z,3.45
2023-02-14T06:44:26.010Z,3.54
2023-02-14T06:49:31.046Z,3.60
2023-02-14T06:54:34.192Z,3.65
2023-02-14T06:59:38.442Z,3.65
2023-02-14T07:04:56.288Z,3.58
2023-02-14T07:09:59.091Z,3.49
2023-02-14T07:15:03.335Z,3.40
2023-02-14T07:20:08.102Z,3.35
2023-02-14T07:25:11.229Z,3.31
2023-02-14T07:30:33.493Z,3.34
2023-02-14T07:35:36.758Z,3.42
2023-02-14T07:40:39.551Z,3.52
2023-02-14T07:45:43.702Z,3.58
2023-02-14T07:50:46.562Z,3.66
2023-02-14T07:56:09.628Z,3.77
2023-02-14T08:01:13.941Z,3.90
2023-02-14T08:06:17.012Z,3.94
2023-02-14T08:11:33.633Z,4.04
2023-02-14T08:16:39.058Z,4.17
2023-02-14T08:21:42.997Z,4.30
2023-02-14T08:26:45.866Z,4.40
2023-02-14T08:31:50.476Z,4.45
2023-02-14T08:36:53.367Z,4.64
2023-02-14T08:41:56.497Z,4.79
2023-02-14T08:47:21.162Z,4.89
2023-02-14T08:52:24.029Z,4.95
2023-02-14T08:57:27.720Z,5.13
2023-02-14T09:02:31.993Z,5.31
2023-02-14T09:07:34.968Z,5.46
2023-02-14T09:12:55.381Z,5.63
2023-02-14T09:17:59.614Z,5.69
2023-02-14T09:23:02.397Z,5.86
2023-02-14T09:28:05.475Z,5.98
2023-02-14T09:33:09.877Z,6.21
2023-02-14T09:38:31.332Z,6.45
2023-02-14T09:43:39.417Z,6.55
2023-02-14T09:48:46.596Z,6.71
2023-02-14T09:53:52.781Z,6.88
2023-02-14T09:59:02.767Z,7.09
2023-02-14T10:04:27.896Z,7.34
2023-02-14T10:09:44.583Z,7.64
2023-02-14T10:14:48.324Z,7.78
2023-02-14T10:19:58.284Z,8.06
2023-02-14T10:25:04.693Z,8.22
2023-02-14T10:30:15.027Z,8.58
2023-02-14T10:35:31.742Z,8.90
2023-02-14T10:40:54.720Z,9.14
2023-02-14T10:46:04.013Z,9.33
2023-02-14T10:51:20.919Z,9.51
2023-02-14T10:56:27.424Z,9.60
2023-02-14T11:01:31.721Z,9.77
2023-02-14T11:06:36.100Z,9.84
2023-02-14T11:11:42.073Z,10.03
2023-02-14T11:16:45.114Z,10.22
2023-02-14T11:21:51.682Z,10.35
2023-02-14T11:26:56.819Z,10.51
2023-02-14T11:32:08.348Z,10.60
2023-02-14T11:37:29.065Z,10.62
2023-02-14T11:42:42.522Z,10.73
2023-02-14T11:47:45.679Z,10.87
2023-02-14T11:52:52.471Z,10.92
2023-02-14T11:57:56.124Z,11.03
2023-02-14T12:03:19.671Z,11.09
2023-02-14T12:08:28.246Z,11.20
2023-02-14T12:13:31.385Z,11.25
2023-02-14T12:18:42.351Z,11.41
2023-02-14T12:23:50.843Z,11.64
2023-02-14T12:29:18.383Z,11.57
2023-02-14T12:34:21.581Z,11.70
2023-02-14T12:39:33.459Z,11.78
2023-02-14T12:44:41.236Z,11.77
2023-02-14T12:50:08.290Z,11.96
2023-02-14T12:55:36.578Z,12.02
2023-02-14T13:00:46.011Z,12.12
2023-02-14T13:05:56.831Z,12.21
2023-02-14T13:11:12.799Z,12.30
2023-02-14T13:16:20.763Z,12.39
2023-02-14T13:21:25.755Z,12.44
2023-02-14T13:26:36.997Z,12.54
2023-02-14T13:31:42.691Z,12.56
2023-02-14T13:36:49.139Z,12.74
2023-02-14T13:41:53.315Z,12.69
2023-02-14T13:46:56.223Z,12.75
2023-02-14T13:52:01.278Z,12.78
2023-02-14T13:57:26.998Z,13.12
2023-02-14T14:02:51.010Z,13.13
2023-02-14T14:08:18.802Z,12.97
2023-02-14T14:13:55.033Z,12.93
2023-02-14T14:19:01.454Z,12.70
2023-02-14T14:24:13.974Z,12.87
2023-02-14T14:29:20.453Z,12.93
2023-02-14T14:34:26.510Z,12.85
2023-02-14T14:39:32.153Z,12.91
2023-02-14T14:44:35.998Z,12.87
2023-02-14T14:49:40.172Z,12.78
2023-02-14T14:54:43.104Z,12.72
2023-02-14T14:59:49.249Z,12.79
2023-02-14T15:04:53.760Z,12.79
2023-02-14T15:09:56.577Z,12.65
2023-02-14T15:14:59.514Z,12.44
2023-02-14T15:20:08.090Z,12.33
2023-02-14T15:25:12.692Z,12.22
2023-02-14T15:30:26.084Z,12.20
2023-02-14T15:35:32.629Z,12.07
2023-02-14T15:40:38.858Z,11.96
2023-02-14T15:45:42.799Z,11.84
2023-02-14T15:50:48.413Z,11.69
2023-02-14T15:55:51.809Z,11.59
2023-02-14T16:00:55.005Z,11.45
2023-02-14T16:06:01.948Z,11.33
2023-02-14T16:11:08.832Z,11.16
2023-02-14T16:16:13.180Z,10.99
2023-02-14T16:21:19.625Z,10.78
2023-02-14T16:26:22.643Z,10.53
2023-02-14T16:31:36.166Z,10.19
2023-02-14T16:36:40.537Z,9.99
2023-02-14T16:41:45.383Z,9.75
2023-02-14T16:46:48.377Z,9.53
2023-02-14T16:51:53.369Z,9.30
2023-02-14T16:57:19.019Z,9.03
2023-02-14T17:02:22.076Z,8.97
2023-02-14T17:07:26.887Z,8.82
2023-02-14T17:12:32.251Z,8.66
2023-02-14T17:17:35.826Z,8.46
2023-02-14T17:23:00.354Z,8.22
2023-02-14T17:28:03.203Z,8.11
2023-02-14T17:33:06.161Z,7.94
2023-02-14T17:43:35.784Z,7.77
2023-02-14T17:48:38.714Z,7.67
2023-02-14T17:53:43.227Z,7.62
2023-02-14T17:58:47.665Z,7.55
2023-02-14T18:03:51.901Z,7.46
2023-02-14T18:08:57.046Z,7.37
2023-02-14T18:14:04.464Z,7.19
2023-02-14T18:19:10.072Z,7.03
2023-02-14T18:24:15.541Z,6.94
2023-02-14T18:29:18.644Z,6.83
2023-02-14T18:34:21.556Z,6.73
2023-02-14T18:39:40.629Z,6.65
2023-02-14T18:44:43.467Z,6.59
2023-02-14T18:49:46.312Z,6.52
2023-02-14T18:54:50.540Z,6.46
2023-02-14T18:59:53.465Z,6.42
2023-02-14T19:05:15.879Z,6.38
2023-02-14T19:10:20.146Z,6.33
2023-02-14T19:15:23.184Z,6.31
2023-02-14T19:20:26.389Z,6.24
2023-02-14T19:25:32.619Z,6.08
2023-02-14T19:30:52.880Z,5.81
2023-02-14T19:36:00.487Z,5.73
2023-02-14T19:41:04.752Z,5.64
2023-02-14T19:46:07.566Z,5.53
2023-02-14T19:51:16.285Z,5.45
2023-02-14T19:56:32.360Z,5.38
2023-02-14T20:01:37.645Z,5.35
2023-02-14T20:06:48.853Z,5.31
2023-02-14T20:11:54.775Z,5.25
2023-02-14T20:16:59.647Z,5.17
2023-02-14T20:22:08.177Z,5.09
2023-02-14T20:27:12.385Z,5.01
2023-02-14T20:32:16.796Z,4.98
2023-02-14T20:37:19.570Z,4.99
2023-02-14T20:42:24.264Z,5.00
2023-02-14T20:47:41.075Z,4.93
2023-02-14T20:52:43.959Z,4.83
2023-02-14T20:57:48.123Z,4.81
2023-02-14T21:02:50.851Z,4.76
2023-02-14T21:07:53.751Z,4.68
2023-02-14T21:13:18.209Z,4.63
2023-02-14T21:18:21.242Z,4.61
2023-02-14T21:23:24.175Z,4.56
2023-02-14T21:28:28.891Z,4.47
2023-02-14T21:33:33.100Z,4.40
2023-02-14T21:38:57.984Z,4.34
2023-02-14T21:44:03.370Z,4.26
2023-02-14T21:49:24.648Z,4.16
2023-02-14T21:54:27.549Z,4.07
2023-02-14T21:59:32.806Z,4.00
2023-02-14T22:04:35.736Z,3.92
2023-02-14T22:09:38.602Z,3.91
2023-02-14T22:14:43.006Z,3.82
2023-02-14T22:19:45.887Z,3.84
2023-02-14T22:24:49.534Z,3.81
2023-02-14T22:30:14.518Z,3.79
2023-02-14T22:35:17.570Z,3.78
2023-02-14T22:40:20.630Z,3.70
2023-02-14T22:45:24.818Z,3.67
2023-02-14T22:50:27.700Z,3.69
2023-02-14T22:55:44.253Z,3.72
2023-02-14T23:00:48.407Z,3.70
2023-02-14T23:05:57.075Z,3.69
2023-02-14T23:11:07.294Z,3.63
2023-02-14T23:16:29.151Z,3.55
2023-02-14T23:21:57.932Z,3.46
2023-02-14T23:27:00.835Z,3.39
2023-02-14T23:32:05.317Z,3.36
2023-02-14T23:37:08.563Z,3.23
2023-02-14T23:42:14.592Z,3.11
2023-02-14T23:47:19.194Z,3.24
2023-02-14T23:52:22.072Z,3.20
2023-02-14T23:57:25.017Z,3.21
